RZN1372 KJFK-KMIA
Flight info
| Callsign | RZN1372 |
|---|---|
| Flight time | N/A |
| Altitude | 40000 |
| Route | WAVEY EMJAY Q167 KALDA Q101 SKARP Y313 HOAGG BNFSH3 |
| Aircraft | B772/H-SDE2E3FGHIJ5LORVWXY/LB1D1 |
Departure
| Time | 2026-04-30 21:46 |
|---|---|
| Airport | John F. Kennedy International Airport (KJFK) |
Arrival
| Time | N/A |
|---|---|
| Airport | Miami International Airport (KMIA) |
| Time | Latitude | Longitude | Altitude | Speed | Heading |
|---|---|---|---|---|---|
| 2026-04-30 21:04 | 40.65323 | -73.81504 | 22 ft | 0 kts | 210° |
| 2026-04-30 21:32 | 40.65320 | -73.81506 | 22 ft | 2 kts | 211° |
| 2026-04-30 21:33 | 40.65307 | -73.81535 | 22 ft | 6 kts | 276° |
| 2026-04-30 21:33 | 40.65294 | -73.81688 | 22 ft | 11 kts | 216° |
| 2026-04-30 21:33 | 40.65237 | -73.81736 | 22 ft | 2 kts | 210° |
| 2026-04-30 21:34 | 40.65231 | -73.81741 | 22 ft | 2 kts | 211° |
| 2026-04-30 21:34 | 40.65155 | -73.81754 | 22 ft | 8 kts | 141° |
| 2026-04-30 21:34 | 40.65110 | -73.81673 | 22 ft | 12 kts | 121° |
| 2026-04-30 21:35 | 40.65057 | -73.81557 | 22 ft | 16 kts | 121° |
| 2026-04-30 21:35 | 40.64990 | -73.81409 | 22 ft | 20 kts | 121° |
| 2026-04-30 21:35 | 40.64913 | -73.81239 | 22 ft | 23 kts | 121° |
| 2026-04-30 21:35 | 40.64824 | -73.81046 | 22 ft | 26 kts | 121° |
| 2026-04-30 21:36 | 40.64732 | -73.80840 | 22 ft | 27 kts | 122° |
| 2026-04-30 21:36 | 40.64627 | -73.80611 | 22 ft | 30 kts | 121° |
| 2026-04-30 21:37 | 40.64294 | -73.79895 | 22 ft | 21 kts | 136° |
| 2026-04-30 21:37 | 40.64250 | -73.79839 | 22 ft | 1 kts | 135° |
| 2026-04-30 21:37 | 40.64244 | -73.79831 | 22 ft | 0 kts | 135° |
| 2026-04-30 21:37 | 40.64243 | -73.79829 | 22 ft | 1 kts | 135° |
| 2026-04-30 21:38 | 40.64233 | -73.79817 | 22 ft | 0 kts | 136° |
| 2026-04-30 21:39 | 40.64216 | -73.79793 | 22 ft | 6 kts | 131° |
| 2026-04-30 21:39 | 40.64181 | -73.79732 | 22 ft | 10 kts | 122° |
| 2026-04-30 21:39 | 40.64134 | -73.79631 | 21 ft | 15 kts | 121° |
| 2026-04-30 21:39 | 40.64070 | -73.79494 | 20 ft | 19 kts | 121° |
| 2026-04-30 21:40 | 40.63996 | -73.79330 | 22 ft | 22 kts | 121° |
| 2026-04-30 21:40 | 40.63911 | -73.79146 | 21 ft | 26 kts | 122° |
| 2026-04-30 21:40 | 40.63814 | -73.78932 | 21 ft | 28 kts | 120° |
| 2026-04-30 21:40 | 40.63705 | -73.78693 | 19 ft | 32 kts | 119° |
| 2026-04-30 21:41 | 40.63592 | -73.78442 | 19 ft | 34 kts | 121° |
| 2026-04-30 21:41 | 40.63465 | -73.78165 | 19 ft | 36 kts | 121° |
| 2026-04-30 21:41 | 40.63363 | -73.77917 | 19 ft | 25 kts | 109° |
| 2026-04-30 21:41 | 40.63455 | -73.77747 | 19 ft | 27 kts | 32° |
| 2026-04-30 21:42 | 40.63625 | -73.77615 | 22 ft | 29 kts | 31° |
| 2026-04-30 21:42 | 40.63800 | -73.77477 | 22 ft | 30 kts | 29° |
| 2026-04-30 21:42 | 40.63980 | -73.77343 | 22 ft | 31 kts | 29° |
| 2026-04-30 21:42 | 40.64171 | -73.77188 | 22 ft | 32 kts | 32° |
| 2026-04-30 21:43 | 40.64344 | -73.77055 | 22 ft | 23 kts | 32° |
| 2026-04-30 21:43 | 40.64490 | -73.76989 | 22 ft | 23 kts | 13° |
| 2026-04-30 21:43 | 40.64616 | -73.76908 | 22 ft | 8 kts | 29° |
| 2026-04-30 21:43 | 40.64675 | -73.76861 | 22 ft | 12 kts | 32° |
| 2026-04-30 21:44 | 40.64756 | -73.76794 | 22 ft | 15 kts | 31° |
| 2026-04-30 21:44 | 40.64859 | -73.76714 | 22 ft | 18 kts | 30° |
| 2026-04-30 21:44 | 40.64968 | -73.76630 | 22 ft | 20 kts | 30° |
| 2026-04-30 21:44 | 40.65073 | -73.76547 | 22 ft | 12 kts | 39° |
| 2026-04-30 21:45 | 40.65092 | -73.76472 | 22 ft | 9 kts | 101° |
| 2026-04-30 21:45 | 40.65060 | -73.76382 | 22 ft | 12 kts | 120° |
| 2026-04-30 21:45 | 40.65020 | -73.76345 | 22 ft | 0 kts | 205° |
| 2026-04-30 21:45 | 40.65016 | -73.76349 | 22 ft | 0 kts | 212° |
| 2026-04-30 21:46 | 40.64924 | -73.76427 | 22 ft | 55 kts | 212° |
| 2026-04-30 21:46 | 40.64321 | -73.76906 | 30 ft | 141 kts | 211° |
| 2026-04-30 21:46 | 40.63479 | -73.77587 | 675 ft | 153 kts | 212° |
| 2026-04-30 21:47 | 40.62620 | -73.78307 | 1482 ft | 152 kts | 212° |
| 2026-04-30 21:47 | 40.61695 | -73.79067 | 1852 ft | 165 kts | 212° |
| 2026-04-30 21:47 | 40.60697 | -73.79831 | 2226 ft | 180 kts | 205° |
| 2026-04-30 21:47 | 40.59514 | -73.80444 | 2744 ft | 192 kts | 198° |
| 2026-04-30 21:48 | 40.58195 | -73.80695 | 3443 ft | 197 kts | 179° |
| 2026-04-30 21:48 | 40.56891 | -73.80356 | 4003 ft | 209 kts | 160° |
| 2026-04-30 21:48 | 40.55647 | -73.79276 | 4568 ft | 223 kts | 136° |
| 2026-04-30 21:48 | 40.54618 | -73.77911 | 5555 ft | 213 kts | 137° |
| 2026-04-30 21:49 | 40.53521 | -73.76528 | 5921 ft | 234 kts | 137° |
| 2026-04-30 21:49 | 40.52319 | -73.75074 | 6322 ft | 251 kts | 138° |
| 2026-04-30 21:49 | 40.50995 | -73.73428 | 6734 ft | 269 kts | 137° |
| 2026-04-30 21:49 | 40.49633 | -73.71731 | 7144 ft | 286 kts | 137° |
| 2026-04-30 21:50 | 40.48179 | -73.69951 | 7782 ft | 293 kts | 138° |
| 2026-04-30 21:50 | 40.46680 | -73.68107 | 8600 ft | 294 kts | 137° |
| 2026-04-30 21:50 | 40.45226 | -73.66283 | 9389 ft | 294 kts | 138° |
| 2026-04-30 21:50 | 40.43771 | -73.64465 | 10126 ft | 294 kts | 136° |
| 2026-04-30 21:51 | 40.42139 | -73.62772 | 10638 ft | 305 kts | 153° |
| 2026-04-30 21:51 | 40.40174 | -73.62174 | 10905 ft | 323 kts | 181° |
| 2026-04-30 21:51 | 40.37937 | -73.62740 | 11304 ft | 339 kts | 198° |
| 2026-04-30 21:51 | 40.35652 | -73.63664 | 11898 ft | 352 kts | 199° |
| 2026-04-30 21:52 | 40.33305 | -73.64587 | 12649 ft | 362 kts | 200° |
| 2026-04-30 21:52 | 40.30905 | -73.65582 | 13585 ft | 367 kts | 201° |
| 2026-04-30 21:52 | 40.28490 | -73.66573 | 14670 ft | 370 kts | 201° |
| 2026-04-30 21:52 | 40.26051 | -73.67567 | 15749 ft | 375 kts | 201° |
| 2026-04-30 21:53 | 40.23568 | -73.68581 | 16805 ft | 380 kts | 201° |
| 2026-04-30 21:53 | 40.21084 | -73.69593 | 17862 ft | 384 kts | 202° |
| 2026-04-30 21:53 | 40.18770 | -73.70537 | 18765 ft | 389 kts | 202° |
| 2026-04-30 21:53 | 40.16134 | -73.71610 | 19776 ft | 395 kts | 202° |
| 2026-04-30 21:54 | 40.13494 | -73.72685 | 20791 ft | 400 kts | 202° |
| 2026-04-30 21:54 | 40.11040 | -73.73682 | 21765 ft | 403 kts | 202° |
| 2026-04-30 21:54 | 40.08394 | -73.74757 | 22745 ft | 406 kts | 202° |
| 2026-04-30 21:54 | 40.05693 | -73.75854 | 23656 ft | 412 kts | 202° |
| 2026-04-30 21:55 | 40.02981 | -73.76954 | 24545 ft | 417 kts | 202° |
| 2026-04-30 21:55 | 40.00217 | -73.78074 | 25434 ft | 422 kts | 201° |
| 2026-04-30 21:55 | 39.97407 | -73.79208 | 26333 ft | 426 kts | 201° |
| 2026-04-30 21:55 | 39.94615 | -73.80334 | 27189 ft | 430 kts | 201° |
| 2026-04-30 21:56 | 39.91783 | -73.81474 | 27982 ft | 434 kts | 201° |
| 2026-04-30 21:56 | 39.88856 | -73.82652 | 28696 ft | 440 kts | 201° |
| 2026-04-30 21:56 | 39.86131 | -73.83749 | 29402 ft | 444 kts | 201° |
| 2026-04-30 21:56 | 39.83134 | -73.84952 | 30200 ft | 446 kts | 201° |
| 2026-04-30 21:57 | 39.80156 | -73.86147 | 31082 ft | 446 kts | 201° |
| 2026-04-30 21:57 | 39.77373 | -73.87262 | 31977 ft | 443 kts | 201° |
| 2026-04-30 21:57 | 39.74488 | -73.88417 | 32924 ft | 440 kts | 201° |
| 2026-04-30 21:57 | 39.71579 | -73.89584 | 33801 ft | 438 kts | 201° |
| 2026-04-30 21:58 | 39.68800 | -73.90697 | 34536 ft | 437 kts | 201° |
| 2026-04-30 21:58 | 39.65901 | -73.91857 | 35041 ft | 436 kts | 201° |
| 2026-04-30 21:58 | 39.63018 | -73.93011 | 35558 ft | 436 kts | 202° |
| 2026-04-30 21:58 | 39.60117 | -73.94171 | 36100 ft | 438 kts | 202° |
| 2026-04-30 21:59 | 39.57258 | -73.95315 | 36733 ft | 438 kts | 202° |
| 2026-04-30 21:59 | 39.54393 | -73.96460 | 37449 ft | 439 kts | 202° |
| 2026-04-30 21:59 | 39.51597 | -73.97577 | 37935 ft | 439 kts | 202° |
| 2026-04-30 22:00 | 39.45790 | -73.99895 | 38859 ft | 441 kts | 202° |
| 2026-04-30 22:00 | 39.40450 | -74.02953 | 39532 ft | 438 kts | 216° |
| 2026-04-30 22:00 | 39.37989 | -74.05200 | 39883 ft | 437 kts | 223° |
| 2026-04-30 22:01 | 39.35736 | -74.07649 | 40348 ft | 436 kts | 224° |
| 2026-04-30 22:01 | 39.33447 | -74.10169 | 40876 ft | 434 kts | 224° |
| 2026-04-30 22:01 | 39.31222 | -74.12614 | 41329 ft | 434 kts | 224° |
| 2026-04-30 22:01 | 39.28915 | -74.15144 | 41682 ft | 436 kts | 223° |
| 2026-04-30 22:02 | 39.26593 | -74.17682 | 41812 ft | 441 kts | 223° |
| 2026-04-30 22:02 | 39.24366 | -74.20112 | 41813 ft | 443 kts | 224° |
| 2026-04-30 22:02 | 39.19824 | -74.25054 | 41820 ft | 440 kts | 223° |
| 2026-04-30 22:03 | 39.15250 | -74.30020 | 41822 ft | 441 kts | 223° |
| 2026-04-30 22:03 | 39.10598 | -74.35060 | 41821 ft | 440 kts | 223° |
| 2026-04-30 22:04 | 39.05945 | -74.40090 | 41819 ft | 440 kts | 224° |
| 2026-04-30 22:05 | 38.99123 | -74.47451 | 41814 ft | 440 kts | 224° |
| 2026-04-30 22:05 | 38.94549 | -74.52374 | 41821 ft | 440 kts | 224° |
| 2026-04-30 22:06 | 38.90064 | -74.57503 | 41820 ft | 439 kts | 226° |
| 2026-04-30 22:06 | 38.83651 | -74.65062 | 41821 ft | 439 kts | 225° |
| 2026-04-30 22:07 | 38.79129 | -74.70360 | 41835 ft | 439 kts | 226° |
| 2026-04-30 22:07 | 38.74891 | -74.75309 | 41830 ft | 439 kts | 226° |
| 2026-04-30 22:08 | 38.70224 | -74.80255 | 41838 ft | 442 kts | 223° |
| 2026-04-30 22:08 | 38.65514 | -74.85118 | 41835 ft | 441 kts | 223° |
| 2026-04-30 22:09 | 38.60871 | -74.89924 | 41842 ft | 441 kts | 223° |
| 2026-04-30 22:09 | 38.56218 | -74.94743 | 41841 ft | 441 kts | 223° |
| 2026-04-30 22:10 | 38.51462 | -74.99711 | 41852 ft | 441 kts | 225° |
| 2026-04-30 22:10 | 38.46995 | -75.04722 | 41849 ft | 440 kts | 225° |
| 2026-04-30 22:11 | 38.39807 | -75.11738 | 41853 ft | 444 kts | 221° |
| 2026-04-30 22:12 | 38.34898 | -75.16357 | 41854 ft | 443 kts | 221° |
| 2026-04-30 22:12 | 38.30024 | -75.20956 | 41853 ft | 441 kts | 221° |
| 2026-04-30 22:13 | 38.25270 | -75.25446 | 41846 ft | 442 kts | 221° |
| 2026-04-30 22:13 | 38.20404 | -75.30039 | 41850 ft | 441 kts | 221° |
| 2026-04-30 22:14 | 38.15546 | -75.34618 | 41845 ft | 440 kts | 222° |
| 2026-04-30 22:14 | 38.10659 | -75.39221 | 41846 ft | 441 kts | 222° |
| 2026-04-30 22:15 | 38.05789 | -75.43799 | 41846 ft | 441 kts | 222° |
| 2026-04-30 22:15 | 38.00808 | -75.48241 | 41843 ft | 442 kts | 220° |
| 2026-04-30 22:16 | 37.95872 | -75.52518 | 41847 ft | 441 kts | 220° |
| 2026-04-30 22:17 | 37.85361 | -75.60406 | 41839 ft | 454 kts | 206° |
| 2026-04-30 22:17 | 37.75908 | -75.61845 | 41855 ft | 478 kts | 184° |
| 2026-04-30 22:18 | 37.66143 | -75.61597 | 41853 ft | 466 kts | 196° |
| 2026-04-30 22:19 | 37.56728 | -75.63589 | 41851 ft | 464 kts | 198° |
| 2026-04-30 22:20 | 37.47337 | -75.65612 | 41860 ft | 460 kts | 198° |
| 2026-04-30 22:20 | 37.37932 | -75.67639 | 41868 ft | 464 kts | 198° |
| 2026-04-30 22:21 | 37.31607 | -75.68996 | 41876 ft | 463 kts | 198° |
| 2026-04-30 22:21 | 37.25437 | -75.70318 | 41864 ft | 459 kts | 198° |
| 2026-04-30 22:22 | 37.19163 | -75.71664 | 41859 ft | 463 kts | 198° |
| 2026-04-30 22:22 | 37.12855 | -75.73012 | 41853 ft | 463 kts | 198° |
| 2026-04-30 22:23 | 37.06646 | -75.74583 | 41862 ft | 454 kts | 206° |
| 2026-04-30 22:23 | 37.01093 | -75.77731 | 41860 ft | 439 kts | 217° |
| 2026-04-30 22:24 | 36.95848 | -75.81385 | 41863 ft | 436 kts | 217° |
| 2026-04-30 22:24 | 36.90656 | -75.84998 | 41859 ft | 440 kts | 217° |
| 2026-04-30 22:25 | 36.85319 | -75.88696 | 41865 ft | 438 kts | 217° |
| 2026-04-30 22:25 | 36.80112 | -75.92298 | 41868 ft | 438 kts | 217° |
| 2026-04-30 22:26 | 36.72183 | -75.97768 | 41873 ft | 438 kts | 217° |
| 2026-04-30 22:27 | 36.67117 | -76.01255 | 41859 ft | 438 kts | 217° |
| 2026-04-30 22:27 | 36.59308 | -76.06621 | 41868 ft | 438 kts | 217° |
| 2026-04-30 22:28 | 36.51556 | -76.11933 | 41869 ft | 437 kts | 218° |
| 2026-04-30 22:29 | 36.41038 | -76.19125 | 41869 ft | 440 kts | 217° |
| 2026-04-30 22:31 | 36.22690 | -76.31610 | 41863 ft | 436 kts | 218° |
| 2026-04-30 22:32 | 36.09535 | -76.40530 | 41866 ft | 453 kts | 218° |
| 2026-04-30 22:33 | 36.01452 | -76.45991 | 41873 ft | 466 kts | 217° |
| 2026-04-30 22:33 | 35.95896 | -76.49732 | 41862 ft | 467 kts | 217° |
| 2026-04-30 22:35 | 35.81709 | -76.58884 | 41871 ft | 470 kts | 216° |
| 2026-04-30 22:36 | 35.67557 | -76.67569 | 41863 ft | 468 kts | 215° |
| 2026-04-30 22:37 | 35.55976 | -76.74672 | 41870 ft | 470 kts | 216° |
| 2026-04-30 22:38 | 35.47043 | -76.80138 | 41880 ft | 470 kts | 216° |
| 2026-04-30 22:39 | 35.38541 | -76.85329 | 41891 ft | 468 kts | 216° |
| 2026-04-30 22:40 | 35.21442 | -76.95763 | 41883 ft | 466 kts | 217° |
| 2026-04-30 22:41 | 35.07282 | -77.04652 | 41883 ft | 469 kts | 217° |
| 2026-04-30 22:43 | 34.90048 | -77.15405 | 41872 ft | 468 kts | 217° |
| 2026-04-30 22:44 | 34.78593 | -77.22523 | 41878 ft | 469 kts | 217° |
| 2026-04-30 22:45 | 34.61300 | -77.33225 | 41869 ft | 472 kts | 217° |
| 2026-04-30 22:47 | 34.42955 | -77.42183 | 41862 ft | 497 kts | 200° |
| 2026-04-30 22:48 | 34.29354 | -77.44826 | 41857 ft | 500 kts | 199° |
| 2026-04-30 22:49 | 34.08790 | -77.48819 | 41857 ft | 500 kts | 200° |
| 2026-04-30 22:51 | 33.88315 | -77.52788 | 41858 ft | 502 kts | 200° |
| 2026-04-30 22:52 | 33.78051 | -77.54770 | 41858 ft | 501 kts | 200° |
| 2026-04-30 22:53 | 33.64304 | -77.57419 | 41861 ft | 502 kts | 199° |
| 2026-04-30 22:53 | 33.54156 | -77.59964 | 41852 ft | 490 kts | 207° |
| 2026-04-30 22:55 | 33.37886 | -77.65677 | 41873 ft | 493 kts | 206° |
| 2026-04-30 22:56 | 33.24821 | -77.70237 | 41876 ft | 493 kts | 206° |
| 2026-04-30 22:57 | 33.08508 | -77.75906 | 41872 ft | 492 kts | 206° |
| 2026-04-30 22:58 | 32.95347 | -77.80463 | 41877 ft | 493 kts | 206° |
| 2026-04-30 22:59 | 32.75689 | -77.87244 | 41858 ft | 494 kts | 206° |